Time;durP1;ratioP1;P1;durP2;ratioP2;P2;SDS_P1;SDS_P2;PMS_P1;PMS_P2;Temp;Humidity;BMP_temperature;BMP_pressure;BME280_temperature;BME280_humidity;BME280_pressure;Samples;Min_cycle;Max_cycle;Signal;HPM_P1;HPM_P2
2022/01/06 00:00:05;;;;;;;0.52;0.52;;;;;;;-2.54;75.39;99477.31;5065112;28;20034;-70
2022/01/06 00:02:30;;;;;;;0.50;0.50;;;;;;;-2.52;75.30;99483.31;5065026;28;20020;-70
2022/01/06 00:04:55;;;;;;;0.50;0.50;;;;;;;-2.55;76.70;99487.44;5063478;28;20055;-69
2022/01/06 00:07:21;;;;;;;0.50;0.50;;;;;;;-2.57;77.83;99497.56;5065101;28;20077;-69
2022/01/06 00:09:48;;;;;;;0.50;0.50;;;;;;;-2.55;78.34;99497.63;5064818;28;20032;-71
2022/01/06 00:12:16;;;;;;;0.40;0.40;;;;;;;-2.61;78.28;99498.31;5064709;28;20058;-70
2022/01/06 00:15:09;;;;;;;0.45;0.45;;;;;;;-2.62;78.91;99489.81;5064598;28;20132;-70
2022/01/06 00:17:45;;;;;;;0.60;0.60;;;;;;;-2.66;77.26;99503.25;5064732;28;20056;-70
2022/01/06 00:23:25;;;;;;;0.50;0.50;;;;;;;-2.64;76.18;99482.97;5064557;28;20028;-70
2022/01/06 00:25:51;;;;;;;0.50;0.50;;;;;;;-2.62;76.79;99510.13;5064477;28;20021;-69
2022/01/06 00:28:18;;;;;;;0.60;0.60;;;;;;;-2.65;77.10;99504.13;5064579;28;20108;-69
2022/01/06 00:30:44;;;;;;;0.50;0.50;;;;;;;-2.64;77.69;99523.63;5064285;28;20032;-69
2022/01/06 00:33:09;;;;;;;0.50;0.50;;;;;;;-2.64;77.59;99528.72;5064376;28;20025;-70
2022/01/06 00:35:35;;;;;;;0.50;0.50;;;;;;;-2.64;77.59;99528.72;5064354;28;20029;-70
2022/01/06 00:38:00;;;;;;;0.50;0.50;;;;;;;-2.71;76.27;99522.56;5064237;28;20060;-70
2022/01/06 00:40:26;;;;;;;0.50;0.50;;;;;;;-2.71;77.19;99521.69;5064329;28;20025;-70
2022/01/06 00:42:51;;;;;;;0.50;0.50;;;;;;;-2.77;77.59;99520.72;5064219;28;20039;-70
2022/01/06 00:45:16;;;;;;;0.50;0.50;;;;;;;-2.74;77.84;99523.34;5064044;28;20052;-70
2022/01/06 00:47:44;;;;;;;0.40;0.40;;;;;;;-2.74;77.66;99522.47;5064160;28;20025;-70
2022/01/06 00:50:10;;;;;;;0.50;0.50;;;;;;;-2.75;77.66;99536.84;5063819;28;20016;-69
2022/01/06 00:52:35;;;;;;;0.52;0.52;;;;;;;-2.77;76.44;99532.53;5064184;28;20040;-70
2022/01/06 00:55:01;;;;;;;0.50;0.50;;;;;;;-2.78;76.35;99534.22;5063941;28;20445;-70
2022/01/06 00:57:26;;;;;;;0.50;0.50;;;;;;;-2.74;76.19;99525.88;5062633;28;20045;-70
2022/01/06 00:59:51;;;;;;;0.50;0.50;;;;;;;-2.73;76.60;99508.94;5063884;28;20036;-69
2022/01/06 01:02:17;;;;;;;0.40;0.40;;;;;;;-2.73;75.76;99534.34;5063934;28;20025;-69
2022/01/06 01:04:42;;;;;;;0.55;0.55;;;;;;;-2.68;74.75;99532.81;5063702;28;20017;-68
2022/01/06 01:07:08;;;;;;;0.50;0.50;;;;;;;-2.74;74.17;99543.66;5063677;28;20024;-69
2022/01/06 01:09:33;;;;;;;0.60;0.60;;;;;;;-2.74;74.61;99545.34;5063860;28;20032;-68
2022/01/06 01:12:02;;;;;;;0.50;0.50;;;;;;;-2.77;75.02;99520.72;5063740;28;20045;-69
2022/01/06 01:14:31;;;;;;;0.50;0.50;;;;;;;-2.75;73.77;99562.25;5063579;28;20104;-70
2022/01/06 01:16:59;;;;;;;0.55;0.55;;;;;;;-2.77;74.33;99566.44;5063731;28;20024;-69
2022/01/06 01:19:25;;;;;;;0.60;0.60;;;;;;;-2.76;74.89;99569.81;5063476;28;20493;-69
2022/01/06 01:21:51;;;;;;;0.50;0.50;;;;;;;-2.78;74.77;99577.41;5061948;28;20323;-69
2022/01/06 01:24:17;;;;;;;0.50;0.50;;;;;;;-2.76;74.49;99585.06;5063383;28;20381;-68
2022/01/06 01:26:42;;;;;;;0.52;0.52;;;;;;;-2.81;75.45;99577.28;5063791;28;20021;-69
2022/01/06 01:29:13;;;;;;;0.50;0.50;;;;;;;-2.83;75.48;99578.94;5063449;28;20021;-70
2022/01/06 01:31:43;;;;;;;0.50;0.50;;;;;;;-2.81;75.23;99582.38;5063003;28;20029;-69
2022/01/06 01:34:09;;;;;;;0.50;0.50;;;;;;;-2.80;74.97;99593.41;5063421;28;20064;-70
2022/01/06 01:36:36;;;;;;;0.50;0.50;;;;;;;-2.81;74.98;99607.78;5063298;28;20257;-70
2022/01/06 01:39:03;;;;;;;0.50;0.50;;;;;;;-2.82;74.75;99613.69;5063443;28;20108;-68
2022/01/06 01:41:28;;;;;;;0.50;0.50;;;;;;;-2.84;74.85;99600.06;5063390;28;20024;-69
2022/01/06 01:43:55;;;;;;;0.57;0.57;;;;;;;-2.78;74.48;99617.22;5063257;28;20079;-69
2022/01/06 01:46:28;;;;;;;0.50;0.50;;;;;;;-2.78;74.35;99605.34;5063410;28;20020;-71
2022/01/06 01:51:38;;;;;;;0.50;0.50;;;;;;;-2.83;74.83;99609.44;5063251;28;20032;-69
2022/01/06 01:54:03;;;;;;;0.50;0.50;;;;;;;-2.85;74.74;99616.13;5063235;28;20251;-73
2022/01/06 01:56:29;;;;;;;0.60;0.60;;;;;;;-2.81;75.06;99629.81;5063315;28;20017;-68
2022/01/06 01:58:55;;;;;;;0.55;0.55;;;;;;;-2.80;75.03;99642.56;5063109;28;20558;-68
2022/01/06 02:01:21;;;;;;;4.47;4.20;;;;;;;-2.83;75.60;99621.25;5063456;28;20025;-70
2022/01/06 02:03:46;;;;;;;0.50;0.50;;;;;;;-2.85;75.15;99649.16;5063129;28;20406;-68
2022/01/06 02:06:11;;;;;;;0.52;0.52;;;;;;;-2.83;75.09;99642.47;5063073;28;20020;-70
2022/01/06 02:08:37;;;;;;;0.50;0.50;;;;;;;-2.84;74.85;99661.03;5063074;28;20465;-70
2022/01/06 02:11:02;;;;;;;0.47;0.47;;;;;;;-2.87;74.14;99656.72;5063126;28;20021;-69
2022/01/06 02:13:29;;;;;;;0.50;0.50;;;;;;;-2.84;74.32;99680.53;5062694;28;20438;-69
2022/01/06 02:16:00;;;;;;;0.50;0.50;;;;;;;-2.90;74.88;99674.41;5062954;28;20088;-70
2022/01/06 02:18:27;;;;;;;0.70;0.70;;;;;;;-2.90;75.14;99679.50;5062990;28;20064;-69
2022/01/06 02:20:52;;;;;;;0.60;0.60;;;;;;;-2.91;75.42;99684.50;5062803;28;20029;-69
2022/01/06 02:23:21;;;;;;;0.50;0.50;;;;;;;-2.93;75.57;99688.66;5063142;28;20024;-69
2022/01/06 02:25:46;;;;;;;0.50;0.50;;;;;;;-3.02;75.18;99691.75;5062895;28;20021;-70
2022/01/06 02:28:12;;;;;;;0.50;0.50;;;;;;;-2.99;75.85;99713.03;5063128;28;20021;-70
2022/01/06 02:30:37;;;;;;;0.50;0.50;;;;;;;-3.01;75.83;99709.59;5062891;28;20029;-69
2022/01/06 02:33:03;;;;;;;0.60;0.60;;;;;;;-3.02;75.68;99720.53;5062919;28;20013;-70
2022/01/06 02:35:30;;;;;;;0.50;0.50;;;;;;;-3.01;75.45;99727.38;5062580;28;20017;-70
2022/01/06 02:37:55;;;;;;;0.40;0.40;;;;;;;-3.05;75.43;99724.69;5062984;28;20047;-70
2022/01/06 02:40:23;;;;;;;0.50;0.50;;;;;;;-3.07;75.79;99726.28;5062819;28;20385;-70
2022/01/06 02:42:52;;;;;;;0.50;0.50;;;;;;;-3.04;75.91;99750.13;5062994;28;20096;-70
2022/01/06 02:45:18;;;;;;;0.50;0.50;;;;;;;-3.09;75.98;99744.00;5065267;28;20021;-70
2022/01/06 02:47:45;;;;;;;0.55;0.55;;;;;;;-3.06;75.65;99748.31;5066375;28;20052;-70
2022/01/06 02:50:12;;;;;;;0.40;0.40;;;;;;;-3.06;75.68;99751.72;5066214;28;20033;-70
2022/01/06 02:52:38;;;;;;;0.50;0.50;;;;;;;-3.05;76.34;99765.31;5066361;28;20336;-70
2022/01/06 02:55:08;;;;;;;0.43;0.43;;;;;;;-3.09;76.62;99764.31;5066330;28;20052;-70
2022/01/06 02:57:35;;;;;;;0.50;0.50;;;;;;;-3.13;75.92;99762.50;5066394;28;20353;-69
2022/01/06 03:00:00;;;;;;;0.50;0.50;;;;;;;-3.07;75.71;99767.78;5066229;28;20397;-69
2022/01/06 03:02:26;;;;;;;0.50;0.50;;;;;;;-3.04;76.54;99756.88;5066247;28;20017;-70
2022/01/06 03:04:52;;;;;;;0.50;0.50;;;;;;;-3.01;76.26;99778.19;5066209;28;20100;-71
2022/01/06 03:07:18;;;;;;;0.50;0.50;;;;;;;-2.96;76.49;99769.84;5065957;28;20021;-70
2022/01/06 03:09:44;;;;;;;0.50;0.50;;;;;;;-3.00;76.37;99769.72;5066017;28;20036;-70
2022/01/06 03:12:46;;;;;;;0.50;0.50;;;;;;;-2.99;75.64;99773.16;5065823;28;20085;-70
2022/01/06 03:15:08;;;;;;;0.50;0.50;;;;;;;-2.95;74.74;99769.03;5064643;28;20546;-70
2022/01/06 03:17:35;;;;;;;0.50;0.50;;;;;;;-2.94;75.41;99780.94;5065951;28;20021;-69
2022/01/06 03:20:01;;;;;;;0.50;0.50;;;;;;;-2.99;75.72;99784.16;5065694;28;20017;-69
2022/01/06 03:22:26;;;;;;;0.60;0.60;;;;;;;-2.98;75.06;99782.50;5064789;28;20021;-70
2022/01/06 03:24:51;;;;;;;0.60;0.60;;;;;;;-3.01;75.98;99778.19;5065806;28;20048;-70
2022/01/06 03:27:17;;;;;;;0.50;0.50;;;;;;;-3.07;76.49;99782.16;5066131;28;20051;-69
2022/01/06 03:29:42;;;;;;;0.50;0.50;;;;;;;-3.09;76.68;99786.31;5065983;28;20028;-69
2022/01/06 03:32:07;;;;;;;0.50;0.50;;;;;;;-3.06;76.68;99794.91;5065873;28;20036;-70
2022/01/06 03:34:33;;;;;;;0.50;0.50;;;;;;;-3.08;76.50;99793.97;5065536;28;20251;-70
2022/01/06 03:37:00;;;;;;;0.43;0.43;;;;;;;-3.06;76.81;99800.00;5065595;28;20021;-69
2022/01/06 03:39:26;;;;;;;0.60;0.60;;;;;;;-3.08;77.00;99790.59;5065520;28;20084;-69
2022/01/06 03:41:51;;;;;;;0.50;0.50;;;;;;;-3.07;77.13;99797.41;5065490;28;20040;-70
2022/01/06 03:44:18;;;;;;;0.50;0.50;;;;;;;-3.09;77.40;99797.34;5065451;28;20017;-69
2022/01/06 03:46:43;;;;;;;0.50;0.50;;;;;;;-3.11;77.40;99789.66;5065508;28;20245;-70
2022/01/06 03:49:09;;;;;;;0.50;0.50;;;;;;;-3.09;77.69;99799.88;5065304;28;20021;-69
2022/01/06 03:51:34;;;;;;;0.50;0.50;;;;;;;-3.12;77.82;99797.22;5065202;28;20027;-70
2022/01/06 03:53:59;;;;;;;0.50;0.50;;;;;;;-3.12;77.98;99799.75;5065224;28;20086;-69
2022/01/06 03:56:25;;;;;;;0.50;0.50;;;;;;;-3.13;78.13;99810.75;5064637;28;20020;-70
2022/01/06 03:58:51;;;;;;;0.50;0.50;;;;;;;-3.16;78.39;99805.50;5065259;28;20029;-69
2022/01/06 04:01:16;;;;;;;0.60;0.60;;;;;;;-3.16;78.30;99813.13;5065244;28;20021;-70
2022/01/06 04:03:44;;;;;;;0.50;0.50;;;;;;;-3.17;78.31;99821.56;5065036;28;20028;-71
2022/01/06 04:06:10;;;;;;;0.50;0.50;;;;;;;-3.18;78.30;99824.94;5064986;28;20025;-70
2022/01/06 04:08:36;;;;;;;0.52;0.52;;;;;;;-3.18;78.59;99814.78;5065099;28;20023;-70
2022/01/06 04:11:01;;;;;;;0.52;0.52;;;;;;;-3.19;78.66;99828.25;5064889;28;20025;-70
2022/01/06 04:13:27;;;;;;;0.50;0.50;;;;;;;-3.22;78.64;99825.59;5064748;28;20092;-68
2022/01/06 04:15:52;;;;;;;0.60;0.60;;;;;;;-3.22;78.82;99833.22;5064825;28;20059;-70
2022/01/06 04:18:18;;;;;;;0.50;0.50;;;;;;;-3.26;79.05;99838.19;5064799;28;20025;-70
2022/01/06 04:20:43;;;;;;;0.40;0.40;;;;;;;-3.30;79.39;99841.41;5064481;28;20031;-70
2022/01/06 04:23:08;;;;;;;0.60;0.60;;;;;;;-3.32;79.40;99835.41;5064728;28;20024;-70
2022/01/06 04:25:34;;;;;;;0.50;0.50;;;;;;;-3.32;79.46;99837.94;5064615;28;20033;-69
2022/01/06 04:27:59;;;;;;;0.50;0.50;;;;;;;-3.36;79.98;99846.25;5064806;28;20112;-70
2022/01/06 04:30:24;;;;;;;0.50;0.50;;;;;;;-3.46;80.16;99841.63;5064503;28;20063;-70
2022/01/06 04:32:50;;;;;;;0.50;0.50;;;;;;;-3.43;80.31;99846.81;5064573;28;20025;-69
2022/01/06 04:35:15;;;;;;;0.50;0.50;;;;;;;-3.47;80.35;99856.00;5062788;28;20025;-69
2022/01/06 04:37:40;;;;;;;0.57;0.57;;;;;;;-3.47;80.41;99860.19;5064444;28;20021;-69
2022/01/06 04:40:07;;;;;;;0.50;0.50;;;;;;;-3.48;80.79;99861.84;5064251;28;20016;-70
2022/01/06 04:42:33;;;;;;;0.50;0.50;;;;;;;-3.50;80.84;99868.56;5064351;28;20021;-70
2022/01/06 04:44:58;;;;;;;0.60;0.60;;;;;;;-3.55;80.76;99876.00;5062760;28;20093;-70
2022/01/06 04:47:24;;;;;;;0.60;0.60;;;;;;;-3.56;80.99;99878.47;5064366;28;20031;-70
2022/01/06 04:49:49;;;;;;;0.50;0.50;;;;;;;-3.63;80.88;99880.75;5064070;28;20020;-70
2022/01/06 04:52:15;;;;;;;0.50;0.50;;;;;;;-3.70;80.98;99881.28;5064028;28;20016;-70
2022/01/06 04:54:40;;;;;;;0.43;0.43;;;;;;;-3.66;81.09;99884.84;5064073;28;20032;-70
2022/01/06 04:57:06;;;;;;;0.50;0.50;;;;;;;-3.79;81.17;99879.25;5064479;28;20025;-70
2022/01/06 04:59:31;;;;;;;0.60;0.60;;;;;;;-3.74;81.07;99892.13;5063928;28;20119;-70
2022/01/06 05:01:56;;;;;;;0.52;0.52;;;;;;;-3.77;81.24;99900.47;5064061;28;20028;-70
2022/01/06 05:04:22;;;;;;;0.50;0.50;;;;;;;-3.81;80.90;99902.81;5064038;28;20027;-69
2022/01/06 05:06:47;;;;;;;0.60;0.60;;;;;;;-3.92;80.19;99899.84;5061547;28;20028;-69
2022/01/06 05:09:15;;;;;;;0.60;0.60;;;;;;;-3.90;78.62;99904.16;5063918;28;20013;-69
2022/01/06 05:11:40;;;;;;;0.60;0.60;;;;;;;-3.85;79.49;99906.91;5063835;28;20049;-69
2022/01/06 05:14:05;;;;;;;0.60;0.60;;;;;;;-3.93;79.34;99898.09;5063686;28;20025;-69
2022/01/06 05:16:31;;;;;;;0.60;0.60;;;;;;;-3.90;79.08;99913.44;5063730;28;20024;-70
2022/01/06 05:18:56;;;;;;;0.60;0.60;;;;;;;-3.93;79.34;99915.88;5063746;28;20028;-69
2022/01/06 05:21:21;;;;;;;0.70;0.70;;;;;;;-3.94;79.66;99914.09;5063519;28;20025;-70
2022/01/06 05:23:49;;;;;;;0.55;0.55;;;;;;;-3.98;79.84;99915.66;5063687;28;20016;-70
2022/01/06 05:26:14;;;;;;;0.60;0.60;;;;;;;-3.94;80.72;99925.13;5063781;28;20020;-70
2022/01/06 05:28:39;;;;;;;0.60;0.60;;;;;;;-3.91;81.15;99921.84;5063690;28;20075;-70
2022/01/06 05:31:05;;;;;;;0.60;0.60;;;;;;;-3.94;80.81;99920.06;5063511;28;20029;-70
2022/01/06 05:33:30;;;;;;;0.50;0.50;;;;;;;-3.91;80.63;99917.66;5063350;28;20025;-68
2022/01/06 05:35:55;;;;;;;0.40;0.40;;;;;;;-3.89;80.86;99926.19;5063287;28;20032;-68
2022/01/06 05:38:21;;;;;;;0.60;0.60;;;;;;;-3.89;80.19;99935.47;5063590;28;20021;-70
2022/01/06 05:40:46;;;;;;;0.57;0.57;;;;;;;-3.88;80.18;99932.13;5063605;28;20100;-70
2022/01/06 05:43:12;;;;;;;0.55;0.55;;;;;;;-3.88;80.09;99932.13;5062016;28;20021;-70
2022/01/06 05:45:37;;;;;;;0.52;0.52;;;;;;;-3.87;81.15;99934.75;5063460;28;20450;-69
2022/01/06 05:48:03;;;;;;;0.60;0.60;;;;;;;-3.92;81.30;99935.34;5063635;28;20025;-69
2022/01/06 05:50:28;;;;;;;0.50;0.50;;;;;;;-3.95;81.73;99936.09;5063097;28;20543;-68
2022/01/06 05:52:54;;;;;;;0.52;0.52;;;;;;;-4.00;81.76;99937.56;5063467;28;20056;-68
2022/01/06 05:55:23;;;;;;;0.50;0.50;;;;;;;-4.02;81.90;99937.47;5063263;28;20075;-71
2022/01/06 05:57:52;;;;;;;0.50;0.50;;;;;;;-4.01;82.16;99938.38;5063338;28;20025;-70
2022/01/06 06:00:18;;;;;;;0.60;0.60;;;;;;;-4.03;82.14;99945.91;5063327;28;20017;-69
2022/01/06 06:02:43;;;;;;;0.60;0.60;;;;;;;-4.06;82.24;99952.50;5063421;28;20116;-69
2022/01/06 06:05:09;;;;;;;0.45;0.45;;;;;;;-4.23;81.61;99948.41;5061749;28;20084;-69
2022/01/06 06:07:34;;;;;;;0.60;0.60;;;;;;;-4.20;81.24;99959.50;5063142;28;20029;-70
2022/01/06 06:10:00;;;;;;;0.50;0.50;;;;;;;-4.25;81.50;99957.63;5063034;28;20036;-70
2022/01/06 06:12:25;;;;;;;0.40;0.40;;;;;;;-4.39;80.51;99959.53;5063003;28;20267;-69
2022/01/06 06:14:51;;;;;;;0.80;0.80;;;;;;;-4.38;80.02;99961.25;5062972;28;20025;-69
2022/01/06 06:17:16;;;;;;;0.50;0.50;;;;;;;-4.34;80.27;99967.34;5063226;28;20086;-69
2022/01/06 06:19:41;;;;;;;0.50;0.50;;;;;;;-4.48;79.06;99972.69;5066193;28;20059;-70
2022/01/06 06:22:07;;;;;;;0.50;0.50;;;;;;;-4.41;80.01;99970.41;5066982;28;20028;-69
2022/01/06 06:24:33;;;;;;;0.60;0.60;;;;;;;-4.45;80.66;99977.00;5067144;28;20461;-70
2022/01/06 06:26:59;;;;;;;0.40;0.40;;;;;;;-4.51;79.84;99975.06;5067034;28;20079;-70
2022/01/06 06:29:24;;;;;;;0.50;0.50;;;;;;;-4.47;80.65;99983.66;5066980;28;20039;-69
2022/01/06 06:31:50;;;;;;;0.50;0.50;;;;;;;-4.44;81.02;99990.56;5066776;28;20021;-70
2022/01/06 06:34:15;;;;;;;0.55;0.55;;;;;;;-4.52;81.17;99982.59;5066653;28;20025;-70
2022/01/06 06:36:41;;;;;;;0.60;0.60;;;;;;;-4.51;81.15;99991.94;5066477;28;20088;-70
2022/01/06 06:39:07;;;;;;;0.57;0.57;;;;;;;-4.49;81.47;99993.72;5066736;28;20303;-69
2022/01/06 06:41:32;;;;;;;0.60;0.60;;;;;;;-4.46;81.40;99997.22;5065364;28;20043;-71
2022/01/06 06:43:58;;;;;;;0.50;0.50;;;;;;;-4.49;81.82;99995.41;5066574;28;20350;-68
2022/01/06 06:46:23;;;;;;;0.60;0.60;;;;;;;-4.43;82.51;100007.47;5065270;28;20024;-69
2022/01/06 06:48:48;;;;;;;0.50;0.50;;;;;;;-4.41;82.24;100005.91;5064982;28;20060;-69
2022/01/06 06:51:14;;;;;;;0.50;0.50;;;;;;;-4.38;82.42;100011.94;5066143;28;20043;-70
2022/01/06 06:53:41;;;;;;;0.60;0.60;;;;;;;-4.36;82.39;100014.59;5066506;28;20021;-70
2022/01/06 06:56:06;;;;;;;0.93;0.93;;;;;;;-4.35;82.54;100013.78;5066229;28;20033;-70
2022/01/06 06:58:32;;;;;;;0.50;0.50;;;;;;;-4.33;82.75;100017.25;5066406;28;20078;-70
2022/01/06 07:00:57;;;;;;;0.60;0.60;;;;;;;-4.31;82.79;100030.84;5065993;28;20036;-69
2022/01/06 07:03:22;;;;;;;0.50;0.50;;;;;;;-4.34;82.90;100038.31;5066242;28;20059;-69
2022/01/06 07:05:48;;;;;;;0.52;0.52;;;;;;;-4.37;82.71;100036.53;5065823;28;20031;-69
2022/01/06 07:08:13;;;;;;;0.50;0.50;;;;;;;-4.32;82.28;100044.34;5066150;28;20017;-69
2022/01/06 07:10:38;;;;;;;0.50;0.50;;;;;;;-4.30;82.57;100044.41;5066081;28;20017;-69
2022/01/06 07:13:04;;;;;;;0.60;0.60;;;;;;;-4.29;82.84;100041.94;5065884;28;20067;-69
2022/01/06 07:15:31;;;;;;;0.50;0.50;;;;;;;-4.25;83.11;100048.88;5065756;28;20055;-69
2022/01/06 07:17:57;;;;;;;0.50;0.50;;;;;;;-4.24;83.21;100048.09;5065937;28;20056;-70
2022/01/06 07:20:22;;;;;;;0.50;0.50;;;;;;;-4.20;83.40;100056.69;5065737;28;20021;-69
2022/01/06 07:22:47;;;;;;;0.60;0.60;;;;;;;-4.18;83.20;100065.25;5066072;28;20039;-70
2022/01/06 07:25:13;;;;;;;0.50;0.50;;;;;;;-4.15;83.27;100065.38;5065778;28;20417;-69
2022/01/06 07:27:38;;;;;;;0.50;0.50;;;;;;;-4.16;83.28;100065.31;5065846;28;20025;-70
2022/01/06 07:30:05;;;;;;;0.60;0.60;;;;;;;-4.11;83.40;100071.47;5064596;28;20088;-69
2022/01/06 07:32:30;;;;;;;0.50;0.50;;;;;;;-4.11;83.38;100068.94;5065619;28;20525;-69
2022/01/06 07:34:56;;;;;;;0.60;0.60;;;;;;;-4.13;82.90;100073.06;5065459;28;20048;-69
2022/01/06 07:37:21;;;;;;;0.60;0.60;;;;;;;-4.08;82.77;100080.88;5065591;28;20025;-70
2022/01/06 07:39:46;;;;;;;0.50;0.50;;;;;;;-4.08;82.58;100096.97;5064243;28;20028;-69
2022/01/06 07:42:13;;;;;;;0.50;0.50;;;;;;;-4.05;81.38;100099.66;5065627;28;20106;-70
2022/01/06 07:44:38;;;;;;;0.50;0.50;;;;;;;-4.03;81.77;100100.59;5065412;28;20017;-70
2022/01/06 07:47:04;;;;;;;0.60;0.60;;;;;;;-4.03;80.03;100104.78;5065250;28;20025;-70
2022/01/06 07:49:29;;;;;;;0.50;0.50;;;;;;;-4.04;80.25;100124.19;5065488;28;20029;-69
2022/01/06 07:51:55;;;;;;;0.60;0.60;;;;;;;-3.99;79.56;100120.22;5065290;28;20036;-69
2022/01/06 07:54:21;;;;;;;2.05;1.95;;;;;;;-3.93;79.72;100131.44;5065197;28;20017;-69
2022/01/06 07:56:46;;;;;;;0.57;0.57;;;;;;;-3.90;80.93;100132.44;5065241;28;20043;-69
2022/01/06 07:59:12;;;;;;;0.50;0.50;;;;;;;-3.84;82.00;100138.59;5065098;28;20029;-70
2022/01/06 08:01:38;;;;;;;0.50;0.50;;;;;;;-3.82;82.50;100144.63;5063653;28;20086;-69
2022/01/06 08:04:03;;;;;;;0.50;0.50;;;;;;;-3.82;81.39;100144.63;5065325;28;20023;-70
2022/01/06 08:06:29;;;;;;;0.50;0.50;;;;;;;-3.77;82.07;100141.47;5064806;28;20580;-69
2022/01/06 08:08:54;;;;;;;0.50;0.50;;;;;;;-3.75;82.43;100141.53;5063850;28;20120;-70
2022/01/06 08:11:19;;;;;;;0.50;0.50;;;;;;;-3.70;83.01;100144.28;5064976;28;20461;-69
2022/01/06 08:13:45;;;;;;;0.47;0.47;;;;;;;-3.62;83.70;100143.84;5064661;28;20042;-67
2022/01/06 08:16:10;;;;;;;0.52;0.52;;;;;;;-3.34;83.98;100140.81;5064904;28;20021;-70
2022/01/06 08:18:36;;;;;;;0.43;0.43;;;;;;;-2.93;83.89;100140.84;5064909;28;20029;-69
2022/01/06 08:21:01;;;;;;;0.40;0.40;;;;;;;-2.45;83.39;100139.41;5064689;28;20029;-69
2022/01/06 08:23:27;;;;;;;0.40;0.40;;;;;;;-2.20;83.08;100140.34;5064798;28;20075;-69
2022/01/06 08:25:52;;;;;;;0.50;0.50;;;;;;;-1.98;82.64;100157.31;5064484;28;20031;-70
2022/01/06 08:28:18;;;;;;;0.40;0.40;;;;;;;-1.81;82.49;100152.91;5064628;28;20029;-69
2022/01/06 08:30:43;;;;;;;0.50;0.50;;;;;;;-1.64;82.27;100158.63;5064508;28;20035;-70
2022/01/06 08:33:09;;;;;;;0.50;0.50;;;;;;;-1.55;82.16;100162.34;5064510;28;20033;-70
2022/01/06 08:35:35;;;;;;;0.30;0.30;;;;;;;-1.51;81.22;100149.78;5062898;28;20032;-70
2022/01/06 08:38:00;;;;;;;0.50;0.50;;;;;;;-1.26;80.32;100160.84;5064562;28;20044;-70
2022/01/06 08:40:26;;;;;;;0.40;0.40;;;;;;;-0.97;79.92;100161.78;5064564;28;20108;-69
2022/01/06 08:42:52;;;;;;;0.40;0.40;;;;;;;-0.80;79.34;100164.94;5064207;28;20103;-70
2022/01/06 08:45:18;;;;;;;0.40;0.40;;;;;;;-0.74;75.72;100170.25;5064227;28;20033;-70
2022/01/06 08:47:44;;;;;;;0.50;0.50;;;;;;;-0.74;77.04;100160.06;5064485;28;20035;-69
2022/01/06 08:50:11;;;;;;;0.40;0.40;;;;;;;-0.73;74.69;100163.44;5064091;28;20397;-69
2022/01/06 08:52:37;;;;;;;0.50;0.50;;;;;;;-0.56;74.00;100161.50;5064152;28;20040;-69
2022/01/06 08:55:05;;;;;;;0.40;0.40;;;;;;;-0.14;76.92;100157.72;5064199;28;20033;-70
2022/01/06 08:57:30;;;;;;;0.50;0.50;;;;;;;0.55;78.15;100165.72;5064239;28;20044;-69
2022/01/06 08:59:57;;;;;;;0.98;0.93;;;;;;;0.88;76.01;100166.59;5063906;28;20017;-69
2022/01/06 09:02:22;;;;;;;0.50;0.50;;;;;;;1.35;74.04;100172.94;5064055;28;20092;-70
2022/01/06 09:04:47;;;;;;;0.40;0.40;;;;;;;1.82;76.18;100177.50;5064131;28;20017;-69
2022/01/06 09:07:13;;;;;;;0.73;0.73;;;;;;;2.35;69.00;100176.13;5063785;28;20020;-71
2022/01/06 09:09:41;;;;;;;0.40;0.40;;;;;;;3.06;66.53;100178.38;5063901;28;20035;-69
2022/01/06 09:12:08;;;;;;;0.40;0.40;;;;;;;3.78;69.33;100173.59;5063703;28;20048;-69
2022/01/06 09:14:34;;;;;;;0.45;0.45;;;;;;;4.32;69.43;100178.66;5062417;28;20025;-69
2022/01/06 09:17:00;;;;;;;0.40;0.40;;;;;;;4.73;64.86;100179.19;5064004;28;20117;-70
2022/01/06 09:19:26;;;;;;;0.40;0.40;;;;;;;5.35;69.23;100178.97;5063721;28;20151;-70
2022/01/06 09:21:51;;;;;;;0.40;0.40;;;;;;;5.78;68.95;100161.28;5063415;28;20029;-70
2022/01/06 09:24:18;;;;;;;0.40;0.40;;;;;;;6.11;68.09;100169.28;5062314;28;20444;-71
2022/01/06 09:26:44;;;;;;;0.40;0.40;;;;;;;5.94;66.42;100169.16;5063637;28;20055;-70
2022/01/06 09:29:13;;;;;;;0.40;0.40;;;;;;;5.35;65.99;100174.69;5063539;28;20021;-72
2022/01/06 09:31:40;;;;;;;0.40;0.40;;;;;;;4.96;67.04;100170.03;5063691;28;20036;-71
2022/01/06 09:34:05;;;;;;;0.40;0.40;;;;;;;4.80;68.08;100174.13;5062225;28;20111;-69
2022/01/06 09:36:31;;;;;;;0.40;0.40;;;;;;;4.64;67.91;100179.91;5063453;28;20037;-71
2022/01/06 09:39:00;;;;;;;0.40;0.40;;;;;;;4.36;69.57;100172.69;5063587;28;20021;-70
2022/01/06 09:41:30;;;;;;;0.40;0.40;;;;;;;3.84;68.17;100173.69;5063446;28;20032;-70
2022/01/06 09:43:57;;;;;;;0.40;0.40;;;;;;;3.13;69.80;100184.47;5063396;28;20488;-71
2022/01/06 09:46:24;;;;;;;0.50;0.50;;;;;;;2.56;68.56;100186.78;5062035;28;20028;-70
2022/01/06 09:48:50;;;;;;;0.40;0.40;;;;;;;2.50;73.63;100194.34;5063249;28;20047;-70
2022/01/06 09:51:16;;;;;;;0.50;0.50;;;;;;;2.68;74.71;100189.63;5063362;28;20036;-70
2022/01/06 09:53:41;;;;;;;0.40;0.40;;;;;;;3.18;74.40;100185.44;5063219;28;20089;-70
2022/01/06 09:56:10;;;;;;;0.50;0.50;;;;;;;3.90;73.46;100178.91;5067584;28;20092;-70
2022/01/06 09:58:35;;;;;;;0.40;0.40;;;;;;;4.70;71.49;100168.00;5067500;28;20082;-72
2022/01/06 10:01:01;;;;;;;0.40;0.40;;;;;;;5.45;69.91;100171.34;5067397;28;20020;-72
2022/01/06 10:03:34;;;;;;;0.40;0.40;;;;;;;6.40;66.54;100185.78;5067501;28;20021;-71
2022/01/06 10:06:21;;;;;;;0.40;0.40;;;;;;;7.16;61.10;100185.16;5067080;28;20021;-70
2022/01/06 10:09:05;;;;;;;0.40;0.40;;;;;;;8.06;58.94;100184.34;5066000;28;20547;-71
2022/01/06 10:11:35;;;;;;;0.40;0.40;;;;;;;8.57;60.45;100179.91;5067106;28;20516;-71
2022/01/06 10:14:11;;;;;;;0.30;0.30;;;;;;;8.74;60.77;100179.88;5067204;28;20033;-71
2022/01/06 10:16:45;;;;;;;0.40;0.40;;;;;;;8.64;60.76;100184.22;5067055;28;20021;-71
2022/01/06 10:19:14;;;;;;;0.43;0.43;;;;;;;8.49;61.64;100187.69;5067040;28;20028;-71
2022/01/06 10:21:45;;;;;;;0.40;0.40;;;;;;;8.10;61.34;100192.97;5066470;28;20021;-72
2022/01/06 10:24:15;;;;;;;0.50;0.50;;;;;;;7.66;63.60;100200.75;5067204;28;20013;-70
2022/01/06 10:27:04;;;;;;;0.57;0.57;;;;;;;7.50;63.54;100208.50;5066961;28;20093;-71
2022/01/06 10:29:42;;;;;;;0.40;0.40;;;;;;;7.55;65.71;100211.06;5066828;28;20021;-70
2022/01/06 10:32:13;;;;;;;0.40;0.40;;;;;;;7.39;66.61;100216.22;5066747;28;20446;-71
2022/01/06 10:34:42;;;;;;;0.40;0.40;;;;;;;6.91;67.36;100219.53;5066590;28;20101;-71
2022/01/06 10:37:19;;;;;;;0.40;0.40;;;;;;;6.25;68.90;100215.75;5066653;28;20089;-72
2022/01/06 10:39:47;;;;;;;0.40;0.40;;;;;;;5.65;70.38;100224.75;5066658;28;20074;-71
2022/01/06 10:42:13;;;;;;;0.40;0.40;;;;;;;5.36;72.56;100222.75;5066361;28;20100;-71
2022/01/06 10:44:46;;;;;;;0.50;0.50;;;;;;;5.15;73.91;100219.09;5066508;28;20080;-70
2022/01/06 10:47:12;;;;;;;0.40;0.40;;;;;;;4.88;73.65;100227.34;5067516;28;20040;-71
2022/01/06 10:49:37;;;;;;;0.40;0.40;;;;;;;4.31;72.46;100216.34;5066765;28;20389;-71
2022/01/06 10:52:03;;;;;;;0.40;0.40;;;;;;;4.06;74.80;100221.13;5066104;28;20025;-71
2022/01/06 10:54:29;;;;;;;0.50;0.50;;;;;;;3.69;76.69;100228.25;5066199;28;20131;-71
2022/01/06 10:57:11;;;;;;;0.35;0.35;;;;;;;3.49;77.77;100233.88;5066426;28;20052;-71
2022/01/06 10:59:37;;;;;;;0.43;0.43;;;;;;;3.54;78.76;100234.84;5066350;28;20071;-72
2022/01/06 11:02:05;;;;;;;0.40;0.40;;;;;;;3.41;78.98;100241.44;5066374;28;20031;-72
2022/01/06 11:04:31;;;;;;;0.43;0.43;;;;;;;3.22;79.27;100229.97;5065910;28;20072;-71
2022/01/06 11:06:56;;;;;;;0.40;0.40;;;;;;;3.02;78.90;100232.16;5065951;28;20056;-71
2022/01/06 11:09:22;;;;;;;0.40;0.40;;;;;;;2.69;76.68;100228.94;5066249;28;20108;-71
2022/01/06 11:14:28;;;;;;;0.40;0.40;;;;;;;2.46;78.59;100231.88;5066103;28;20030;-71
2022/01/06 11:16:54;;;;;;;0.50;0.50;;;;;;;2.54;80.51;100240.56;5065849;28;20040;-72
2022/01/06 11:19:25;;;;;;;0.40;0.40;;;;;;;2.59;80.01;100239.00;5065831;28;20230;-71
2022/01/06 11:21:51;;;;;;;0.50;0.50;;;;;;;2.75;79.44;100241.03;5065461;28;20122;-71
2022/01/06 11:24:23;;;;;;;0.40;0.40;;;;;;;2.97;78.54;100237.22;5066080;28;20315;-72
2022/01/06 11:27:03;;;;;;;0.50;0.50;;;;;;;3.19;78.47;100251.31;5065832;28;20021;-72
2022/01/06 11:29:34;;;;;;;0.45;0.45;;;;;;;3.46;77.89;100246.66;5065787;28;20047;-71
2022/01/06 11:32:01;;;;;;;0.40;0.40;;;;;;;3.92;76.60;100233.75;5065768;28;20060;-72
2022/01/06 11:34:27;;;;;;;0.40;0.40;;;;;;;4.45;74.66;100238.81;5065547;28;20033;-71
2022/01/06 11:36:55;;;;;;;0.50;0.50;;;;;;;4.42;72.94;100226.78;5065376;28;20124;-71